Wind From: 11-12-2017 12:03 Until: 12-12-2017 06:00 warning for: Wind Level: Orange info button

Power and phone distribution networks may be disrupted for relatively long periods., Roofs and chimneys can be damaged. , Tree branches may break. , Vehicles can be deported. , Traffic may be disrupted, particularly on secondary roads in forest areas. Limit your trips. , Limit your speed in highway driving, especially if you drive a vehicle or hitch sensitive to wind. , Do not go for walks in forests or along the coast., In town, be vigilant against possible falling objects., Do not work on roofs and do not touch any electrical line fallen on the ground., Store or secure sensitive objects to wind or likely to be damaged., Always install power generators outside buildings. 


Meteo18 Weather Cam more information Meteo18 Weather Cam


Thunder radar more information blitzortung!


Rain radar more information rain snow radar


Visit our other weather sites:

Template documentation
and downloads

And another site



Weather Underground History page Text

Daily Summary for July 8, 2017 Units:  English    Metric   Both
« Previous Day
Next Day »
Daily Weekly Monthly Yearly Custom
  High: Low: Average:
Temperature: 88.5 °F 67.5 °F 77.7 °F
Dew Point: 66.9 °F 58.6 °F 63.9 °F
Humidity: 89 % 43 % 65 %
Wind Speed: 13 mph 0 mph 3.2 mph
Wind Gust: 25 mph - -
Wind:- - SSE
Pressure: 30.1 in 30 in -
Precipitation: 0.06 in    
Historical Graphs
 
 
Tabular Data for July 8, 2017
Time Temperature Dew Point Pressure Wind Wind Speed Wind Gust Humidity Rainfall Rate (Hourly)
00:02 73.2 °F 66 °F 30.1 in Calm     78 % 0 in
00:07 73.2 °F 66 °F 30.1 in Calm     78 % 0 in
00:12 73 °F 65.8 °F 30.1 in Calm     78 % 0 in
00:17 72.7 °F 65.8 °F 30.1 in Calm     79 % 0 in
00:22 72.3 °F 65.8 °F 30.1 in Calm     80 % 0 in
00:32 71.4 °F 65.3 °F 30.1 in NNE 1 mph 3 mph 81 % 0 in
00:42 72.3 °F 65.8 °F 30.1 in Calm   3 mph 80 % 0 in
00:47 72.3 °F 65.5 °F 30.1 in Calm   3 mph 79 % 0 in
00:52 72 °F 65.5 °F 30.1 in Calm   3 mph 80 % 0 in
00:57 71.8 °F 65.3 °F 30.1 in Calm   2 mph 80 % 0 in
01:02 71.6 °F 65.5 °F 30.1 in Calm   1 mph 81 % 0 in
01:07 71.4 °F 65.3 °F 30.1 in Calm     81 % 0 in
01:12 71.2 °F 65.1 °F 30.1 in Calm     81 % 0 in
01:17 71.1 °F 65.3 °F 30.1 in Calm     82 % 0 in
01:22 70.7 °F 64.9 °F 30.1 in Calm     82 % 0 in
01:27 70.3 °F 64.9 °F 30.1 in Calm     83 % 0 in
01:32 70.3 °F 64.9 °F 30.1 in West 2 mph   83 % 0 in
01:37 70 °F 64.9 °F 30.1 in North 1 mph 3 mph 84 % 0 in
01:42 70 °F 65.3 °F 30.1 in North 1 mph 3 mph 85 % 0 in
01:47 70 °F 65.3 °F 30.1 in Calm   3 mph 85 % 0 in
01:52 70.2 °F 65.1 °F 30.1 in Calm   2 mph 84 % 0 in
02:02 70.3 °F 64.6 °F 30.1 in Calm   1 mph 82 % 0 in
02:07 70 °F 64.6 °F 30.1 in Calm   1 mph 83 % 0 in
02:12 70 °F 64.9 °F 30.1 in North 4 mph 4 mph 84 % 0 in
02:17 70.2 °F 65.1 °F 30.1 in NNW 1 mph 4 mph 84 % 0 in
02:22 70.5 °F 65.1 °F 30.1 in NW 1 mph 4 mph 83 % 0 in
02:27 70.9 °F 65.1 °F 30.1 in Calm   4 mph 82 % 0 in
02:32 70.3 °F 64.6 °F 30.1 in WNW 1 mph 4 mph 82 % 0 in
02:42 70 °F 64.9 °F 30.1 in North 2 mph 2 mph 84 % 0 in
02:47 70.2 °F 64.8 °F 30.1 in North 2 mph 2 mph 83 % 0 in
02:52 70.5 °F 64.8 °F 30.1 in NNW 1 mph 3 mph 82 % 0 in
02:57 70.7 °F 64.9 °F 30.1 in Calm   3 mph 82 % 0 in
03:02 70.2 °F 64 °F 30.1 in Calm   3 mph 81 % 0 in
03:07 69.3 °F 63.9 °F 30.1 in Calm   2 mph 83 % 0 in
03:12 68.9 °F 64.2 °F 30.1 in Calm   2 mph 85 % 0 in
03:17 68.5 °F 63.9 °F 30.1 in Calm   2 mph 85 % 0 in
03:22 68.4 °F 63.7 °F 30.1 in Calm   2 mph 85 % 0 in
03:27 68.2 °F 63.9 °F 30.1 in Calm   1 mph 86 % 0 in
03:32 67.6 °F 63.7 °F 30.1 in Calm   1 mph 87 % 0 in
03:37 67.6 °F 63.7 °F 30.1 in Calm   1 mph 87 % 0 in
03:42 67.5 °F 63.9 °F 30.1 in Calm   3 mph 88 % 0 in
03:47 67.6 °F 64 °F 30.1 in Calm   3 mph 88 % 0 in
03:52 67.6 °F 64 °F 30.1 in WNW 2 mph 3 mph 88 % 0 in
03:57 67.6 °F 64 °F 30.1 in NNW 2 mph 2 mph 88 % 0 in
04:02 68 °F 64 °F 30.1 in Calm   4 mph 87 % 0 in
04:07 68.4 °F 64 °F 30.1 in Calm   4 mph 86 % 0 in
04:12 68.4 °F 64 °F 30.1 in WNW 1 mph 4 mph 86 % 0 in
04:17 68.5 °F 64.2 °F 30.1 in NNW 3 mph 3 mph 86 % 0 in
04:22 69.3 °F 64.2 °F 30.1 in North 2 mph 3 mph 84 % 0 in
04:27 69.1 °F 64 °F 30.1 in NNW 1 mph 4 mph 84 % 0 in
04:32 68.9 °F 63.9 °F 30.1 in NNW 1 mph 4 mph 84 % 0 in
04:42 68.9 °F 63.9 °F 30.1 in NNW 2 mph 2 mph 84 % 0 in
04:47 69.3 °F 63.9 °F 30.1 in Calm   3 mph 83 % 0 in
04:52 69.4 °F 64 °F 30.1 in Calm   3 mph 83 % 0 in
04:57 69.4 °F 64 °F 30.1 in WNW 1 mph 3 mph 83 % 0 in
05:02 69.4 °F 64 °F 30.1 in NW 2 mph 4 mph 83 % 0 in
05:12 69.3 °F 63.9 °F 30.1 in NW 1 mph 4 mph 83 % 0 in
05:17 69.3 °F 63.9 °F 30.1 in WNW 1 mph 4 mph 83 % 0 in
05:22 69.1 °F 64 °F 30.1 in WNW 1 mph 4 mph 84 % 0 in
05:27 68.9 °F 63.9 °F 30.1 in WNW 2 mph 3 mph 84 % 0 in
05:37 68.5 °F 63.9 °F 30.1 in NW 2 mph 4 mph 85 % 0 in
05:42 68.4 °F 63.7 °F 30.1 in Calm   4 mph 85 % 0 in
05:47 68.2 °F 63.9 °F 30.1 in Calm   4 mph 86 % 0 in
05:52 67.8 °F 63.5 °F 30.1 in NW 1 mph 3 mph 86 % 0 in
06:02 67.6 °F 63.7 °F 30.1 in NNW 2 mph 3 mph 87 % 0 in
06:12 67.5 °F 63.5 °F 30.1 in Calm   3 mph 87 % 0 in
06:17 67.5 °F 63.5 °F 30.1 in NW 3 mph 3 mph 87 % 0 in
06:22 67.5 °F 63.5 °F 30.1 in NW 3 mph 3 mph 87 % 0 in
06:27 67.5 °F 63.1 °F 30.1 in North 1 mph 3 mph 86 % 0 in
06:32 67.5 °F 63.1 °F 30.1 in WNW 2 mph 3 mph 86 % 0 in
06:37 67.5 °F 63.1 °F 30.1 in West 1 mph 3 mph 86 % 0 in
06:42 67.5 °F 63.1 °F 30.1 in Calm   3 mph 86 % 0 in
06:47 67.6 °F 63.3 °F 30.1 in Calm   3 mph 86 % 0 in
06:52 67.8 °F 63.1 °F 30.1 in Calm   3 mph 85 % 0 in
06:57 68 °F 63.3 °F 30.1 in Calm   3 mph 85 % 0 in
07:02 68.4 °F 63.7 °F 30.1 in NW 1 mph 3 mph 85 % 0 in
07:12 68.7 °F 63.7 °F 30.1 in Calm   3 mph 84 % 0 in
07:17 68.9 °F 63.9 °F 30.1 in Calm   3 mph 84 % 0 in
07:22 69.3 °F 64.2 °F 30.1 in Calm   3 mph 84 % 0 in
07:32 70.2 °F 64.8 °F 30.1 in NNE 2 mph 5 mph 83 % 0 in
07:37 70.3 °F 64.6 °F 30.1 in ENE 1 mph 5 mph 82 % 0 in
07:42 70.7 °F 64.6 °F 30.1 in North 2 mph 7 mph 81 % 0 in
07:47 70.9 °F 64.8 °F 30.1 in North 4 mph 7 mph 81 % 0 in
07:57 71.6 °F 64.8 °F 30.1 in North 2 mph 8 mph 79 % 0 in
08:02 71.8 °F 64.9 °F 30.1 in NNE 2 mph 8 mph 79 % 0 in
08:07 72.1 °F 64.9 °F 30.1 in Calm   7 mph 78 % 0 in
08:12 72.7 °F 65.1 °F 30.1 in NNW 3 mph 7 mph 77 % 0 in
08:17 72.9 °F 65.3 °F 30.1 in Calm   9 mph 77 % 0 in
08:22 73.2 °F 65.1 °F 30.1 in NNW 2 mph 9 mph 76 % 0 in
08:32 73.9 °F 65.1 °F 30.1 in NNW 5 mph 8 mph 74 % 0 in
08:37 74.3 °F 65.1 °F 30.1 in NE 7 mph 8 mph 73 % 0 in
08:42 74.5 °F 64.9 °F 30.1 in NNE 3 mph 8 mph 72 % 0 in
08:47 74.7 °F 65.1 °F 30.1 in NE 4 mph 9 mph 72 % 0 in
08:52 74.7 °F 64.6 °F 30.1 in NNE 4 mph 10 mph 71 % 0 in
08:57 74.5 °F 64.4 °F 30.1 in NNE 4 mph 10 mph 71 % 0 in
09:02 74.5 °F 64.4 °F 30.1 in NE 6 mph 10 mph 71 % 0 in
09:12 75.6 °F 64.8 °F 30.1 in NNE 3 mph 9 mph 69 % 0 in
09:17 75.6 °F 64.2 °F 30.1 in ENE 8 mph 11 mph 68 % 0 in
09:22 75.7 °F 64.4 °F 30.1 in North 2 mph 11 mph 68 % 0 in
09:32 75.7 °F 64 °F 30.1 in NNE 8 mph 10 mph 67 % 0 in
09:42 75.6 °F 63.9 °F 30.1 in NNE 5 mph 10 mph 67 % 0 in
09:47 75.7 °F 64 °F 30.1 in NNW 5 mph 9 mph 67 % 0 in
09:52 75.7 °F 64 °F 30.1 in NNE 1 mph 8 mph 67 % 0 in
09:57 75.9 °F 64.2 °F 30.1 in NNW 5 mph 8 mph 67 % 0 in
10:02 76.3 °F 64 °F 30.1 in North 3 mph 8 mph 66 % 0 in
10:12 76.5 °F 64.2 °F 30.1 in NNE 6 mph 7 mph 66 % 0 in
10:17 76.6 °F 64.4 °F 30.1 in NNW 3 mph 7 mph 66 % 0 in
10:22 76.8 °F 64.2 °F 30.1 in NNW 3 mph 7 mph 65 % 0 in
10:27 77.4 °F 64.8 °F 30.1 in NNE 4 mph 8 mph 65 % 0 in
10:32 78.1 °F 64.9 °F 30.1 in East 2 mph 9 mph 64 % 0 in
10:42 79.3 °F 65.1 °F 30.1 in NW 1 mph 9 mph 62 % 0 in
10:52 80.1 °F 65.5 °F 30.1 in East 1 mph 6 mph 61 % 0 in
10:57 80.1 °F 65.5 °F 30.1 in North 3 mph 10 mph 61 % 0 in
11:02 79.7 °F 65.5 °F 30.1 in NW 2 mph 10 mph 62 % 0 in
11:12 80.2 °F 66 °F 30.1 in North 2 mph 6 mph 62 % 0 in
11:22 81.3 °F 66.6 °F 30.1 in East 1 mph 8 mph 61 % 0 in
11:32 82.6 °F 66.4 °F 30.1 in NNW 1 mph 8 mph 58 % 0 in
11:37 82.9 °F 66.2 °F 30.1 in NNW 3 mph 8 mph 57 % 0 in
11:42 83.5 °F 66.2 °F 30.1 in NNE 5 mph 8 mph 56 % 0 in
11:47 83.8 °F 66 °F 30.1 in ENE 5 mph 9 mph 55 % 0 in
12:02 84.4 °F 66.4 °F 30.1 in NNE 4 mph 10 mph 55 % 0 in
12:07 84.9 °F 65.8 °F 30.1 in WNW 3 mph 10 mph 53 % 0 in
12:12 84.9 °F 66.9 °F 30.1 in NE 4 mph 9 mph 55 % 0 in
12:17 85.8 °F 66.2 °F 30.1 in NE 6 mph 9 mph 52 % 0 in
12:22 86 °F 66.4 °F 30.1 in ENE 2 mph 10 mph 52 % 0 in
12:27 86.2 °F 66.6 °F 30.1 in West 4 mph 10 mph 52 % 0 in
12:32 86.5 °F 65.1 °F 30.1 in WSW 3 mph 10 mph 49 % 0 in
12:42 87.6 °F 65.5 °F 30.1 in NNE 6 mph 13 mph 48 % 0 in
12:47 87.8 °F 65.1 °F 30.1 in NNW 6 mph 13 mph 47 % 0 in
12:52 87.4 °F 65.3 °F 30.1 in WNW 1 mph 13 mph 48 % 0 in
13:02 87.1 °F 65.7 °F 30.1 in East 4 mph 12 mph 49 % 0 in
13:07 86.5 °F 65.1 °F 30.1 in NNE 10 mph 14 mph 49 % 0 in
13:12 86.5 °F 65.1 °F 30.1 in NNE 5 mph 14 mph 49 % 0 in
13:17 86.4 °F 65.5 °F 30.1 in NNE 6 mph 14 mph 50 % 0 in
13:22 86.9 °F 65.5 °F 30.1 in WNW 6 mph 14 mph 49 % 0 in
13:32 85.6 °F 64.2 °F 30.1 in North 8 mph 14 mph 49 % 0 in
13:37 85.6 °F 64.2 °F 30.1 in NE 5 mph 14 mph 49 % 0 in
13:47 85.3 °F 64 °F 30.1 in NNW 9 mph 13 mph 49 % 0 in
13:52 85.3 °F 64 °F 30.1 in NNW 6 mph 16 mph 49 % 0 in
13:57 85.3 °F 64 °F 30.1 in North 8 mph 16 mph 49 % 0 in
14:02 84.7 °F 63.5 °F 30.1 in North 8 mph 14 mph 49 % 0 in
14:12 84.7 °F 64 °F 30.1 in NNE 2 mph 13 mph 50 % 0 in
14:22 84.9 °F 63.7 °F 30.1 in NNE 8 mph 11 mph 49 % 0 in
14:27 84.7 °F 64 °F 30.1 in NE 3 mph 12 mph 50 % 0 in
14:32 85.1 °F 63.9 °F 30.1 in NNE 5 mph 12 mph 49 % 0 in
14:37 85.3 °F 64 °F 30.1 in NE 1 mph 12 mph 49 % 0 in
14:42 85.5 °F 63 °F 30.1 in NW 4 mph 11 mph 47 % 0 in
14:47 85.3 °F 64.6 °F 30.1 in NE 4 mph 14 mph 50 % 0 in
14:52 85.5 °F 64 °F 30.1 in ENE 4 mph 14 mph 49 % 0 in
14:57 85.3 °F 64.6 °F 30.1 in NW 4 mph 12 mph 50 % 0 in
15:02 85.6 °F 63.7 °F 30.1 in North 1 mph 12 mph 48 % 0 in
15:07 85.5 °F 63.5 °F 30.1 in NE 8 mph 12 mph 48 % 0 in
15:12 85.3 °F 63.3 °F 30.1 in NNE 2 mph 10 mph 48 % 0 in
15:17 85.6 °F 63.7 °F 30.1 in NE 7 mph 10 mph 48 % 0 in
15:22 85.5 °F 63.5 °F 30.1 in NNE 4 mph 11 mph 48 % 0 in
15:27 85.3 °F 64 °F 30.1 in NNE 3 mph 11 mph 49 % 0 in
15:32 85.1 °F 63.9 °F 30.1 in NE 6 mph 11 mph 49 % 0 in
15:37 85.3 °F 64 °F 30.1 in NE 7 mph 11 mph 49 % 0 in
15:42 85.3 °F 63.3 °F 30 in NNW 5 mph 10 mph 48 % 0 in
15:47 85.6 °F 63.1 °F 30 in NNE 7 mph 12 mph 47 % 0 in
15:52 85.8 °F 63.9 °F 30 in ENE 8 mph 12 mph 48 % 0 in
16:02 86.7 °F 64 °F 30 in NE 7 mph 10 mph 47 % 0 in
16:07 87.1 °F 63.9 °F 30 in ENE 5 mph 12 mph 46 % 0 in
16:12 87.3 °F 64 °F 30 in NE 6 mph 13 mph 46 % 0 in
16:22 87.4 °F 64 °F 30 in NNW 6 mph 13 mph 46 % 0 in
16:27 87.8 °F 64.4 °F 30 in East 8 mph 13 mph 46 % 0 in
16:32 88 °F 63.3 °F 30 in NNE 11 mph 11 mph 44 % 0 in
16:37 88 °F 63.3 °F 30 in NE 8 mph 13 mph 44 % 0 in
16:42 88.2 °F 64.2 °F 30 in NNE 10 mph 13 mph 45 % 0 in
16:47 88.3 °F 63 °F 30 in ENE 7 mph 13 mph 43 % 0 in
16:52 88.2 °F 63.5 °F 30 in East 5 mph 12 mph 44 % 0 in
16:57 88.2 °F 62.8 °F 30 in NE 2 mph 12 mph 43 % 0 in
17:02 88.2 °F 62.8 °F 30 in NE 1 mph 12 mph 43 % 0 in
17:07 88.2 °F 62.8 °F 30 in NNW 3 mph 11 mph 43 % 0 in
17:12 88.2 °F 62.8 °F 30 in NE 6 mph 12 mph 43 % 0 in
17:17 87.8 °F 63.1 °F 30 in ENE 3 mph 12 mph 44 % 0 in
17:22 88 °F 63.3 °F 30 in NNE 2 mph 12 mph 44 % 0 in
17:32 88 °F 63.3 °F 30 in ENE 2 mph 7 mph 44 % 0 in
17:37 88.3 °F 63.7 °F 30 in East 2 mph 8 mph 44 % 0 in
17:42 88.2 °F 63.5 °F 30 in NE 3 mph 8 mph 44 % 0 in
17:47 88.3 °F 64.2 °F 30 in ENE 5 mph 8 mph 45 % 0 in
17:57 87.4 °F 63.5 °F 30 in East 5 mph 8 mph 45 % 0 in
18:02 87.3 °F 64 °F 30 in NE 7 mph 8 mph 46 % 0 in
18:07 87.1 °F 63.9 °F 30 in ENE 6 mph 8 mph 46 % 0 in
18:12 86.7 °F 63.5 °F 30 in NE 7 mph 9 mph 46 % 0 in
18:17 87.3 °F 64 °F 30 in ENE 7 mph 9 mph 46 % 0 in
18:27 87.4 °F 62.8 °F 30 in NE 2 mph 9 mph 44 % 0 in
18:32 87.6 °F 63 °F 30 in NE 1 mph 7 mph 44 % 0 in
18:37 88.2 °F 62.8 °F 30 in NE 2 mph 6 mph 43 % 0 in
18:42 88.3 °F 63 °F 30 in NNE 4 mph 8 mph 43 % 0 in
18:47 88.5 °F 63.1 °F 30 in East 5 mph 11 mph 43 % 0 in
18:52 88.2 °F 63.5 °F 30 in East 4 mph 11 mph 44 % 0 in
19:02 88.5 °F 63.9 °F 30 in NNE 4 mph 11 mph 44 % 0 in
19:07 88.5 °F 63.9 °F 30 in ENE 2 mph 10 mph 44 % 0 in
19:12 88 °F 63.3 °F 30 in NE 5 mph 9 mph 44 % 0 in
19:17 87.6 °F 63.7 °F 30 in NNE 13 mph 14 mph 45 % 0 in
19:22 87.4 °F 63.5 °F 30 in NE 5 mph 15 mph 45 % 0 in
19:27 87.3 °F 64 °F 30 in NNE 10 mph 15 mph 46 % 0 in
19:32 86.5 °F 63.3 °F 30 in NE 6 mph 15 mph 46 % 0 in
19:37 86.5 °F 63.9 °F 30 in NNW 3 mph 13 mph 47 % 0 in
19:42 86.5 °F 63.9 °F 30 in NNE 8 mph 13 mph 47 % 0 in
19:47 86 °F 63.5 °F 30 in NNE 9 mph 13 mph 47 % 0 in
19:52 85.5 °F 63.5 °F 30 in NE 13 mph 13 mph 48 % 0 in
19:57 85.3 °F 64 °F 30 in NE 4 mph 14 mph 49 % 0 in
20:02 84.9 °F 63.7 °F 30 in NNE 8 mph 14 mph 49 % 0 in
20:07 84.6 °F 62.8 °F 30 in NE 8 mph 14 mph 48 % 0 in
20:12 84.6 °F 63.3 °F 30 in ENE 1 mph 11 mph 49 % 0 in
20:17 84.4 °F 63.1 °F 30 in NNW 4 mph 11 mph 49 % 0 in
20:22 84.4 °F 63.1 °F 30 in NE 8 mph 11 mph 49 % 0 in
20:27 84.4 °F 63.1 °F 30 in NE 3 mph 10 mph 49 % 0 in
20:32 84.4 °F 63.1 °F 30 in NNE 9 mph 10 mph 49 % 0 in
20:37 84.4 °F 63.1 °F 30 in NNE 3 mph 10 mph 49 % 0 in
20:42 84 °F 62.8 °F 30 in North 2 mph 10 mph 49 % 0 in
20:47 83.8 °F 62.6 °F 30 in NE 6 mph 10 mph 49 % 0 in
20:52 83.5 °F 62.2 °F 30 in North 6 mph 7 mph 49 % 0 in
20:57 83.1 °F 62.6 °F 30 in NNE 8 mph 8 mph 50 % 0 in
21:02 82.8 °F 62.8 °F 30 in NNE 6 mph 8 mph 51 % 0 in
21:12 82.4 °F 63 °F 30 in NNE 3 mph 9 mph 52 % 0 in
21:17 82 °F 62.6 °F 30 in North 1 mph 9 mph 52 % 0 in
21:22 81.9 °F 62.4 °F 30 in Calm   9 mph 52 % 0 in
21:27 81.9 °F 63 °F 30 in Calm   6 mph 53 % 0 in
21:32 81.3 °F 63.1 °F 30 in WNW 2 mph 2 mph 54 % 0 in
21:37 81 °F 63.3 °F 30 in Calm   2 mph 55 % 0 in
21:42 80.4 °F 63.9 °F 30.1 in SW 11 mph 11 mph 57 % 0 in
21:47 78.4 °F 60.4 °F 30.1 in SW 12 mph 25 mph 54 % 0 in
21:52 77.4 °F 60.4 °F 30.1 in SW 7 mph 25 mph 56 % 0 in
21:57 76.3 °F 59.9 °F 30.1 in SSW 5 mph 25 mph 57 % 0 in
22:02 75.7 °F 59.9 °F 30.1 in SSW 2 mph 25 mph 58 % 0 in
22:07 75.7 °F 59 °F 30.1 in SW 9 mph 22 mph 56 % 0 in
22:12 75.9 °F 58.6 °F 30.1 in SSW 9 mph 16 mph 55 % 0 in
22:17 75.2 °F 59.4 °F 30.1 in WSW 7 mph 14 mph 58 % 0 in
22:22 74.7 °F 60.3 °F 30.1 in SW 4 mph 14 mph 61 % 0 in
22:27 74.1 °F 60.3 °F 30.1 in SE 2 mph 14 mph 62 % 0 in
22:32 73.8 °F 60.4 °F 30.1 in Calm   12 mph 63 % 0 in
22:37 73.6 °F 60.3 °F 30 in East 1 mph 7 mph 63 % 0 in
22:42 73.6 °F 60.6 °F 30 in East 1 mph 3 mph 64 % 0 in
22:52 72.7 °F 61.5 °F 30 in NE 2 mph 3 mph 68 % 0 in
22:57 71.8 °F 62.2 °F 30 in ENE 5 mph 5 mph 72 % 0 in
23:02 70.7 °F 62.4 °F 30 in NE 2 mph 5 mph 75 % 0.01 in
23:07 70.3 °F 62.4 °F 30 in WSW 1 mph 5 mph 76 % 0.02 in
23:12 70 °F 62.8 °F 30 in NW 1 mph 5 mph 78 % 0.02 in
23:17 69.4 °F 63.7 °F 30 in NNW 3 mph 3 mph 82 % 0.03 in
23:22 68.9 °F 63.1 °F 30 in WSW 3 mph 4 mph 82 % 0.04 in
23:27 68.7 °F 63 °F 30 in North 1 mph 4 mph 82 % 0.05 in
23:32 68.5 °F 63.9 °F 30 in NNE 1 mph 6 mph 85 % 0.05 in
23:37 68 °F 63 °F 30 in NNE 2 mph 6 mph 84 % 0.06 in
23:42 68.2 °F 63.5 °F 30 in Calm   6 mph 85 % 0.06 in
23:47 67.8 °F 63.9 °F 30 in Calm   5 mph 87 % 0.06 in
23:52 67.6 °F 63.7 °F 30 in Calm   5 mph 87 % 0.06 in
23:57 67.5 °F 64 °F 30 in ENE 1 mph 3 mph 89 % 0.06 in
Meteo18
Compliments of Weather Underground - 4 mb

Script developed by  Jim McMurry - jmcmurry@mwt.net Adapted for the template by  Wim van der Kuil - Leuven-Template.eu

You find our weather info also at:

European Weather Network

Weather Underground

Equipment we use:

Weather-station
Davis Vue

Weather-program
Meteohub

Weather-server
Raspberry PI 2 B+

Provider
1 and 1

Davis Vue

Meteohub

Raspberry PI 2 B+

1 and 1